sensor_id;sensor_type;location;lat;lon;timestamp;P1;durP1;ratioP1;P2;durP2;ratioP2
14858;SDS011;7521;51.700;6.874;2022-11-02T00:01:13;13.67;;;2.50;;
14858;SDS011;7521;51.700;6.874;2022-11-02T00:04:20;11.63;;;2.27;;
14858;SDS011;7521;51.700;6.874;2022-11-02T00:07:25;9.40;;;2.40;;
14858;SDS011;7521;51.700;6.874;2022-11-02T00:10:30;13.63;;;2.65;;
14858;SDS011;7521;51.700;6.874;2022-11-02T00:13:35;9.90;;;2.70;;
14858;SDS011;7521;51.700;6.874;2022-11-02T00:16:41;8.90;;;2.20;;
14858;SDS011;7521;51.700;6.874;2022-11-02T00:19:46;15.17;;;2.50;;
14858;SDS011;7521;51.700;6.874;2022-11-02T00:22:51;12.23;;;2.77;;
14858;SDS011;7521;51.700;6.874;2022-11-02T00:25:59;12.70;;;2.73;;
14858;SDS011;7521;51.700;6.874;2022-11-02T00:29:05;9.93;;;2.17;;
14858;SDS011;7521;51.700;6.874;2022-11-02T00:32:11;12.07;;;2.40;;
14858;SDS011;7521;51.700;6.874;2022-11-02T00:35:16;11.95;;;2.75;;
14858;SDS011;7521;51.700;6.874;2022-11-02T00:38:21;14.85;;;2.60;;
14858;SDS011;7521;51.700;6.874;2022-11-02T00:41:26;10.95;;;2.45;;
14858;SDS011;7521;51.700;6.874;2022-11-02T00:44:31;9.95;;;2.25;;
14858;SDS011;7521;51.700;6.874;2022-11-02T00:47:37;14.10;;;2.65;;
14858;SDS011;7521;51.700;6.874;2022-11-02T00:50:42;13.82;;;2.72;;
14858;SDS011;7521;51.700;6.874;2022-11-02T00:53:47;10.05;;;2.13;;
14858;SDS011;7521;51.700;6.874;2022-11-02T00:56:52;14.83;;;2.93;;
14858;SDS011;7521;51.700;6.874;2022-11-02T00:59:57;13.85;;;2.38;;
14858;SDS011;7521;51.700;6.874;2022-11-02T01:03:03;10.17;;;2.30;;
14858;SDS011;7521;51.700;6.874;2022-11-02T01:06:09;15.02;;;2.90;;
14858;SDS011;7521;51.700;6.874;2022-11-02T01:09:14;9.73;;;1.90;;
14858;SDS011;7521;51.700;6.874;2022-11-02T01:12:20;9.67;;;2.43;;
14858;SDS011;7521;51.700;6.874;2022-11-02T01:15:25;14.13;;;2.63;;
14858;SDS011;7521;51.700;6.874;2022-11-02T01:18:31;7.80;;;2.08;;
14858;SDS011;7521;51.700;6.874;2022-11-02T01:21:36;14.27;;;2.67;;
14858;SDS011;7521;51.700;6.874;2022-11-02T01:24:41;10.03;;;2.43;;
14858;SDS011;7521;51.700;6.874;2022-11-02T01:27:46;13.43;;;2.60;;
14858;SDS011;7521;51.700;6.874;2022-11-02T01:30:52;11.52;;;2.33;;
14858;SDS011;7521;51.700;6.874;2022-11-02T01:33:57;10.95;;;2.60;;
14858;SDS011;7521;51.700;6.874;2022-11-02T01:37:02;9.70;;;2.33;;
14858;SDS011;7521;51.700;6.874;2022-11-02T01:40:07;13.20;;;2.78;;
14858;SDS011;7521;51.700;6.874;2022-11-02T01:43:29;11.83;;;2.33;;
14858;SDS011;7521;51.700;6.874;2022-11-02T01:46:40;12.70;;;2.00;;
14858;SDS011;7521;51.700;6.874;2022-11-02T01:49:46;10.87;;;2.30;;
14858;SDS011;7521;51.700;6.874;2022-11-02T01:52:52;11.57;;;2.93;;
14858;SDS011;7521;51.700;6.874;2022-11-02T01:55:58;10.87;;;2.50;;
14858;SDS011;7521;51.700;6.874;2022-11-02T01:59:05;11.27;;;2.20;;
14858;SDS011;7521;51.700;6.874;2022-11-02T02:02:15;12.27;;;2.30;;
14858;SDS011;7521;51.700;6.874;2022-11-02T02:05:21;12.53;;;2.33;;
14858;SDS011;7521;51.700;6.874;2022-11-02T02:08:27;10.37;;;1.70;;
14858;SDS011;7521;51.700;6.874;2022-11-02T02:11:34;13.27;;;3.10;;
14858;SDS011;7521;51.700;6.874;2022-11-02T02:14:39;9.80;;;1.93;;
14858;SDS011;7521;51.700;6.874;2022-11-02T02:18:19;7.57;;;1.60;;
14858;SDS011;7521;51.700;6.874;2022-11-02T02:21:20;8.60;;;1.60;;
14858;SDS011;7521;51.700;6.874;2022-11-02T02:34:00;10.88;;;1.98;;
14858;SDS011;7521;51.700;6.874;2022-11-02T02:37:13;11.70;;;1.93;;
14858;SDS011;7521;51.700;6.874;2022-11-02T02:40:29;5.77;;;2.00;;
14858;SDS011;7521;51.700;6.874;2022-11-02T02:43:36;8.50;;;1.67;;
14858;SDS011;7521;51.700;6.874;2022-11-02T02:46:45;13.17;;;2.03;;
14858;SDS011;7521;51.700;6.874;2022-11-02T02:49:54;9.63;;;1.80;;
14858;SDS011;7521;51.700;6.874;2022-11-02T02:53:02;8.37;;;1.70;;
14858;SDS011;7521;51.700;6.874;2022-11-02T02:56:09;8.83;;;2.50;;
14858;SDS011;7521;51.700;6.874;2022-11-02T02:59:17;10.93;;;2.37;;
14858;SDS011;7521;51.700;6.874;2022-11-02T03:02:29;11.47;;;2.20;;
14858;SDS011;7521;51.700;6.874;2022-11-02T03:05:36;8.27;;;2.00;;
14858;SDS011;7521;51.700;6.874;2022-11-02T03:08:42;7.43;;;1.70;;
14858;SDS011;7521;51.700;6.874;2022-11-02T03:21:38;9.03;;;2.20;;
14858;SDS011;7521;51.700;6.874;2022-11-02T03:25:27;11.30;;;2.50;;
14858;SDS011;7521;51.700;6.874;2022-11-02T03:28:15;8.70;;;2.33;;
14858;SDS011;7521;51.700;6.874;2022-11-02T03:31:38;8.80;;;1.83;;
14858;SDS011;7521;51.700;6.874;2022-11-02T03:34:45;15.20;;;2.93;;
14858;SDS011;7521;51.700;6.874;2022-11-02T03:37:54;11.10;;;2.07;;
14858;SDS011;7521;51.700;6.874;2022-11-02T03:41:02;9.70;;;2.13;;
14858;SDS011;7521;51.700;6.874;2022-11-02T03:44:16;10.60;;;2.60;;
14858;SDS011;7521;51.700;6.874;2022-11-02T03:47:24;9.37;;;1.87;;
14858;SDS011;7521;51.700;6.874;2022-11-02T03:50:30;7.80;;;1.73;;
14858;SDS011;7521;51.700;6.874;2022-11-02T03:53:38;12.27;;;2.30;;
14858;SDS011;7521;51.700;6.874;2022-11-02T03:56:46;9.63;;;2.07;;
14858;SDS011;7521;51.700;6.874;2022-11-02T03:59:52;12.87;;;2.57;;
14858;SDS011;7521;51.700;6.874;2022-11-02T04:02:58;11.35;;;2.63;;
14858;SDS011;7521;51.700;6.874;2022-11-02T04:06:04;12.90;;;2.20;;
14858;SDS011;7521;51.700;6.874;2022-11-02T04:09:09;10.88;;;2.35;;
14858;SDS011;7521;51.700;6.874;2022-11-02T04:12:15;11.70;;;2.27;;
14858;SDS011;7521;51.700;6.874;2022-11-02T04:15:38;7.90;;;1.83;;
14858;SDS011;7521;51.700;6.874;2022-11-02T04:18:44;12.70;;;2.00;;
14858;SDS011;7521;51.700;6.874;2022-11-02T04:22:08;7.97;;;1.67;;
14858;SDS011;7521;51.700;6.874;2022-11-02T04:25:32;8.53;;;2.03;;
14858;SDS011;7521;51.700;6.874;2022-11-02T04:28:37;11.00;;;2.25;;
14858;SDS011;7521;51.700;6.874;2022-11-02T04:31:42;7.55;;;1.83;;
14858;SDS011;7521;51.700;6.874;2022-11-02T04:34:47;8.18;;;1.80;;
14858;SDS011;7521;51.700;6.874;2022-11-02T04:37:52;7.00;;;1.88;;
14858;SDS011;7521;51.700;6.874;2022-11-02T04:41:17;11.70;;;1.67;;
14858;SDS011;7521;51.700;6.874;2022-11-02T04:44:41;10.80;;;2.23;;
14858;SDS011;7521;51.700;6.874;2022-11-02T04:47:46;12.27;;;2.22;;
14858;SDS011;7521;51.700;6.874;2022-11-02T04:50:51;10.15;;;1.85;;
14858;SDS011;7521;51.700;6.874;2022-11-02T04:53:57;10.68;;;2.17;;
14858;SDS011;7521;51.700;6.874;2022-11-02T04:57:02;8.30;;;1.80;;
14858;SDS011;7521;51.700;6.874;2022-11-02T05:00:07;13.90;;;1.73;;
14858;SDS011;7521;51.700;6.874;2022-11-02T05:03:13;12.37;;;2.10;;
14858;SDS011;7521;51.700;6.874;2022-11-02T05:06:18;6.13;;;1.45;;
14858;SDS011;7521;51.700;6.874;2022-11-02T05:09:24;7.00;;;1.77;;
14858;SDS011;7521;51.700;6.874;2022-11-02T05:12:29;11.25;;;2.38;;
14858;SDS011;7521;51.700;6.874;2022-11-02T05:15:37;8.38;;;1.95;;
14858;SDS011;7521;51.700;6.874;2022-11-02T05:18:42;9.57;;;1.80;;
14858;SDS011;7521;51.700;6.874;2022-11-02T05:21:48;9.33;;;1.70;;
14858;SDS011;7521;51.700;6.874;2022-11-02T05:24:53;6.90;;;1.80;;
14858;SDS011;7521;51.700;6.874;2022-11-02T05:27:58;11.27;;;1.83;;
14858;SDS011;7521;51.700;6.874;2022-11-02T05:31:03;10.50;;;1.83;;
14858;SDS011;7521;51.700;6.874;2022-11-02T05:34:09;9.20;;;1.67;;
14858;SDS011;7521;51.700;6.874;2022-11-02T05:37:14;10.40;;;1.83;;
14858;SDS011;7521;51.700;6.874;2022-11-02T05:40:19;8.63;;;2.10;;
14858;SDS011;7521;51.700;6.874;2022-11-02T05:43:24;12.38;;;1.95;;
14858;SDS011;7521;51.700;6.874;2022-11-02T05:46:30;8.33;;;1.70;;
14858;SDS011;7521;51.700;6.874;2022-11-02T05:49:35;15.25;;;2.25;;
14858;SDS011;7521;51.700;6.874;2022-11-02T05:52:40;11.67;;;2.20;;
14858;SDS011;7521;51.700;6.874;2022-11-02T05:55:45;9.53;;;2.13;;
14858;SDS011;7521;51.700;6.874;2022-11-02T05:58:52;11.52;;;2.78;;
14858;SDS011;7521;51.700;6.874;2022-11-02T06:01:57;13.33;;;2.77;;
14858;SDS011;7521;51.700;6.874;2022-11-02T06:05:02;13.52;;;2.28;;
14858;SDS011;7521;51.700;6.874;2022-11-02T06:08:08;6.83;;;2.17;;
14858;SDS011;7521;51.700;6.874;2022-11-02T06:11:13;12.75;;;2.30;;
14858;SDS011;7521;51.700;6.874;2022-11-02T06:14:18;11.33;;;2.33;;
14858;SDS011;7521;51.700;6.874;2022-11-02T06:17:23;11.27;;;2.45;;
14858;SDS011;7521;51.700;6.874;2022-11-02T06:20:29;13.55;;;2.08;;
14858;SDS011;7521;51.700;6.874;2022-11-02T06:23:34;11.90;;;2.28;;
14858;SDS011;7521;51.700;6.874;2022-11-02T06:26:39;11.50;;;2.17;;
14858;SDS011;7521;51.700;6.874;2022-11-02T06:29:44;9.60;;;2.63;;
14858;SDS011;7521;51.700;6.874;2022-11-02T06:32:50;8.82;;;2.50;;
14858;SDS011;7521;51.700;6.874;2022-11-02T06:35:56;12.03;;;3.10;;
14858;SDS011;7521;51.700;6.874;2022-11-02T06:39:01;9.93;;;2.47;;
14858;SDS011;7521;51.700;6.874;2022-11-02T06:42:06;14.13;;;3.15;;
14858;SDS011;7521;51.700;6.874;2022-11-02T06:45:11;12.90;;;3.13;;
14858;SDS011;7521;51.700;6.874;2022-11-02T06:48:17;12.97;;;2.70;;
14858;SDS011;7521;51.700;6.874;2022-11-02T06:51:22;12.05;;;1.98;;
14858;SDS011;7521;51.700;6.874;2022-11-02T06:54:27;10.73;;;2.70;;
14858;SDS011;7521;51.700;6.874;2022-11-02T06:57:35;11.70;;;2.47;;
14858;SDS011;7521;51.700;6.874;2022-11-02T07:00:40;12.00;;;2.53;;
14858;SDS011;7521;51.700;6.874;2022-11-02T07:03:46;7.43;;;2.00;;
14858;SDS011;7521;51.700;6.874;2022-11-02T07:06:51;9.38;;;2.28;;
14858;SDS011;7521;51.700;6.874;2022-11-02T07:09:56;12.50;;;2.47;;
14858;SDS011;7521;51.700;6.874;2022-11-02T07:13:01;17.13;;;2.35;;
14858;SDS011;7521;51.700;6.874;2022-11-02T07:16:07;14.93;;;2.43;;
14858;SDS011;7521;51.700;6.874;2022-11-02T07:19:12;10.98;;;2.00;;
14858;SDS011;7521;51.700;6.874;2022-11-02T07:22:17;9.80;;;1.98;;
14858;SDS011;7521;51.700;6.874;2022-11-02T07:25:23;10.80;;;2.30;;
14858;SDS011;7521;51.700;6.874;2022-11-02T07:28:28;9.85;;;2.63;;
14858;SDS011;7521;51.700;6.874;2022-11-02T07:31:33;13.52;;;2.38;;
14858;SDS011;7521;51.700;6.874;2022-11-02T07:34:38;10.80;;;2.10;;
14858;SDS011;7521;51.700;6.874;2022-11-02T07:37:44;9.68;;;1.73;;
14858;SDS011;7521;51.700;6.874;2022-11-02T07:40:58;10.90;;;1.70;;
14858;SDS011;7521;51.700;6.874;2022-11-02T07:44:03;11.43;;;1.90;;
14858;SDS011;7521;51.700;6.874;2022-11-02T07:47:08;9.27;;;2.30;;
14858;SDS011;7521;51.700;6.874;2022-11-02T07:50:17;8.77;;;1.50;;
14858;SDS011;7521;51.700;6.874;2022-11-02T07:53:22;6.87;;;1.37;;
14858;SDS011;7521;51.700;6.874;2022-11-02T07:56:28;13.82;;;1.75;;
14858;SDS011;7521;51.700;6.874;2022-11-02T07:59:33;10.38;;;2.15;;
14858;SDS011;7521;51.700;6.874;2022-11-02T08:02:38;9.83;;;1.80;;
14858;SDS011;7521;51.700;6.874;2022-11-02T08:05:43;8.43;;;1.50;;
14858;SDS011;7521;51.700;6.874;2022-11-02T08:08:48;12.18;;;2.10;;
14858;SDS011;7521;51.700;6.874;2022-11-02T08:11:55;10.00;;;1.80;;
14858;SDS011;7521;51.700;6.874;2022-11-02T08:15:00;10.07;;;2.13;;
14858;SDS011;7521;51.700;6.874;2022-11-02T08:18:13;13.52;;;1.77;;
14858;SDS011;7521;51.700;6.874;2022-11-02T08:21:18;10.90;;;2.10;;
14858;SDS011;7521;51.700;6.874;2022-11-02T08:24:23;14.23;;;2.53;;
14858;SDS011;7521;51.700;6.874;2022-11-02T08:27:28;9.13;;;1.77;;
14858;SDS011;7521;51.700;6.874;2022-11-02T08:30:34;11.48;;;2.08;;
14858;SDS011;7521;51.700;6.874;2022-11-02T08:33:39;11.47;;;1.97;;
14858;SDS011;7521;51.700;6.874;2022-11-02T08:36:44;7.87;;;1.93;;
14858;SDS011;7521;51.700;6.874;2022-11-02T08:39:49;12.50;;;2.47;;
14858;SDS011;7521;51.700;6.874;2022-11-02T08:42:58;11.17;;;2.03;;
14858;SDS011;7521;51.700;6.874;2022-11-02T08:46:03;9.83;;;1.90;;
14858;SDS011;7521;51.700;6.874;2022-11-02T08:49:08;9.97;;;2.07;;
14858;SDS011;7521;51.700;6.874;2022-11-02T08:52:14;13.13;;;1.63;;
14858;SDS011;7521;51.700;6.874;2022-11-02T08:55:19;10.48;;;1.80;;
14858;SDS011;7521;51.700;6.874;2022-11-02T08:58:24;10.33;;;1.80;;
14858;SDS011;7521;51.700;6.874;2022-11-02T09:01:29;8.87;;;1.60;;
14858;SDS011;7521;51.700;6.874;2022-11-02T09:04:34;12.33;;;1.77;;
14858;SDS011;7521;51.700;6.874;2022-11-02T09:07:40;9.37;;;1.93;;
14858;SDS011;7521;51.700;6.874;2022-11-02T09:10:45;10.25;;;2.13;;
14858;SDS011;7521;51.700;6.874;2022-11-02T09:13:51;8.83;;;1.53;;
14858;SDS011;7521;51.700;6.874;2022-11-02T09:16:56;13.27;;;1.90;;
14858;SDS011;7521;51.700;6.874;2022-11-02T09:20:01;9.20;;;1.75;;
14858;SDS011;7521;51.700;6.874;2022-11-02T09:23:06;10.70;;;2.17;;
14858;SDS011;7521;51.700;6.874;2022-11-02T09:26:12;9.60;;;1.63;;
14858;SDS011;7521;51.700;6.874;2022-11-02T09:29:17;11.73;;;2.13;;
14858;SDS011;7521;51.700;6.874;2022-11-02T09:32:22;9.93;;;1.90;;
14858;SDS011;7521;51.700;6.874;2022-11-02T09:35:28;11.80;;;2.45;;
14858;SDS011;7521;51.700;6.874;2022-11-02T09:38:34;10.47;;;1.90;;
14858;SDS011;7521;51.700;6.874;2022-11-02T09:41:43;15.27;;;2.45;;
14858;SDS011;7521;51.700;6.874;2022-11-02T09:44:56;10.27;;;1.90;;
14858;SDS011;7521;51.700;6.874;2022-11-02T09:48:04;11.60;;;1.83;;
14858;SDS011;7521;51.700;6.874;2022-11-02T09:51:11;14.60;;;2.10;;
14858;SDS011;7521;51.700;6.874;2022-11-02T09:54:21;10.93;;;2.53;;
14858;SDS011;7521;51.700;6.874;2022-11-02T09:57:28;14.27;;;2.33;;
14858;SDS011;7521;51.700;6.874;2022-11-02T10:00:34;8.87;;;1.93;;
14858;SDS011;7521;51.700;6.874;2022-11-02T10:17:13;10.73;;;1.90;;
14858;SDS011;7521;51.700;6.874;2022-11-02T10:20:27;7.30;;;1.53;;
14858;SDS011;7521;51.700;6.874;2022-11-02T10:26:41;6.07;;;1.33;;
14858;SDS011;7521;51.700;6.874;2022-11-02T10:29:50;11.80;;;1.90;;
14858;SDS011;7521;51.700;6.874;2022-11-02T10:32:58;12.47;;;2.67;;
14858;SDS011;7521;51.700;6.874;2022-11-02T10:39:20;13.43;;;1.60;;
14858;SDS011;7521;51.700;6.874;2022-11-02T10:49:15;9.23;;;1.73;;
14858;SDS011;7521;51.700;6.874;2022-11-02T10:52:25;7.93;;;2.03;;
14858;SDS011;7521;51.700;6.874;2022-11-02T10:55:35;15.73;;;1.97;;
14858;SDS011;7521;51.700;6.874;2022-11-02T10:58:45;11.00;;;1.63;;
14858;SDS011;7521;51.700;6.874;2022-11-02T11:05:11;9.17;;;2.37;;
14858;SDS011;7521;51.700;6.874;2022-11-02T11:11:38;10.37;;;1.60;;
14858;SDS011;7521;51.700;6.874;2022-11-02T11:14:44;11.30;;;2.10;;
14858;SDS011;7521;51.700;6.874;2022-11-02T11:17:50;4.97;;;1.20;;
14858;SDS011;7521;51.700;6.874;2022-11-02T11:20:55;11.03;;;2.20;;
14858;SDS011;7521;51.700;6.874;2022-11-02T11:24:10;8.70;;;1.53;;
14858;SDS011;7521;51.700;6.874;2022-11-02T11:36:49;7.90;;;1.90;;
14858;SDS011;7521;51.700;6.874;2022-11-02T11:39:56;9.83;;;1.97;;
14858;SDS011;7521;51.700;6.874;2022-11-02T11:43:02;10.40;;;2.13;;
14858;SDS011;7521;51.700;6.874;2022-11-02T11:46:08;8.23;;;1.73;;
14858;SDS011;7521;51.700;6.874;2022-11-02T11:49:19;8.27;;;1.80;;
14858;SDS011;7521;51.700;6.874;2022-11-02T11:52:26;8.70;;;1.77;;
14858;SDS011;7521;51.700;6.874;2022-11-02T11:55:31;9.47;;;1.97;;
14858;SDS011;7521;51.700;6.874;2022-11-02T11:58:37;13.20;;;2.42;;
14858;SDS011;7521;51.700;6.874;2022-11-02T12:01:58;9.20;;;1.93;;
14858;SDS011;7521;51.700;6.874;2022-11-02T12:11:38;13.83;;;1.80;;
14858;SDS011;7521;51.700;6.874;2022-11-02T12:14:53;12.80;;;2.83;;
14858;SDS011;7521;51.700;6.874;2022-11-02T12:37:22;8.83;;;2.00;;
14858;SDS011;7521;51.700;6.874;2022-11-02T12:43:47;4.93;;;1.40;;
14858;SDS011;7521;51.700;6.874;2022-11-02T12:50:04;6.50;;;1.60;;
14858;SDS011;7521;51.700;6.874;2022-11-02T12:53:20;10.40;;;1.70;;
14858;SDS011;7521;51.700;6.874;2022-11-02T12:56:31;14.00;;;1.80;;
14858;SDS011;7521;51.700;6.874;2022-11-02T12:59:38;14.97;;;2.20;;
14858;SDS011;7521;51.700;6.874;2022-11-02T13:02:54;9.60;;;1.50;;
14858;SDS011;7521;51.700;6.874;2022-11-02T13:06:03;10.60;;;2.07;;
14858;SDS011;7521;51.700;6.874;2022-11-02T13:12:34;8.60;;;1.57;;
14858;SDS011;7521;51.700;6.874;2022-11-02T13:15:41;9.73;;;2.40;;
14858;SDS011;7521;51.700;6.874;2022-11-02T13:18:49;13.83;;;2.07;;
14858;SDS011;7521;51.700;6.874;2022-11-02T13:21:55;12.80;;;1.73;;
14858;SDS011;7521;51.700;6.874;2022-11-02T13:28:25;9.10;;;1.43;;
14858;SDS011;7521;51.700;6.874;2022-11-02T13:31:39;8.20;;;1.70;;
14858;SDS011;7521;51.700;6.874;2022-11-02T13:34:45;9.53;;;1.83;;
14858;SDS011;7521;51.700;6.874;2022-11-02T13:37:53;6.63;;;1.70;;
14858;SDS011;7521;51.700;6.874;2022-11-02T13:41:09;8.13;;;1.80;;
14858;SDS011;7521;51.700;6.874;2022-11-02T13:50:37;10.83;;;2.57;;
14858;SDS011;7521;51.700;6.874;2022-11-02T13:53:46;8.43;;;1.73;;
14858;SDS011;7521;51.700;6.874;2022-11-02T13:56:55;13.10;;;2.03;;
14858;SDS011;7521;51.700;6.874;2022-11-02T14:00:03;8.50;;;2.00;;
14858;SDS011;7521;51.700;6.874;2022-11-02T14:03:13;11.67;;;1.80;;
14858;SDS011;7521;51.700;6.874;2022-11-02T14:06:20;13.50;;;2.13;;
14858;SDS011;7521;51.700;6.874;2022-11-02T14:09:32;10.77;;;2.37;;
14858;SDS011;7521;51.700;6.874;2022-11-02T14:12:40;14.73;;;2.10;;
14858;SDS011;7521;51.700;6.874;2022-11-02T14:15:50;11.60;;;2.07;;
14858;SDS011;7521;51.700;6.874;2022-11-02T14:22:19;9.47;;;1.70;;
14858;SDS011;7521;51.700;6.874;2022-11-02T14:25:25;11.87;;;2.37;;
14858;SDS011;7521;51.700;6.874;2022-11-02T14:28:50;11.93;;;2.30;;
14858;SDS011;7521;51.700;6.874;2022-11-02T14:31:55;8.60;;;2.05;;
14858;SDS011;7521;51.700;6.874;2022-11-02T14:35:18;12.57;;;2.27;;
14858;SDS011;7521;51.700;6.874;2022-11-02T14:38:35;11.87;;;2.10;;
14858;SDS011;7521;51.700;6.874;2022-11-02T14:42:02;8.00;;;2.23;;
14858;SDS011;7521;51.700;6.874;2022-11-02T14:45:12;11.50;;;1.93;;
14858;SDS011;7521;51.700;6.874;2022-11-02T14:48:20;12.00;;;2.33;;
14858;SDS011;7521;51.700;6.874;2022-11-02T14:51:27;10.23;;;2.20;;
14858;SDS011;7521;51.700;6.874;2022-11-02T14:54:37;6.60;;;2.07;;
14858;SDS011;7521;51.700;6.874;2022-11-02T14:57:55;14.37;;;2.70;;
14858;SDS011;7521;51.700;6.874;2022-11-02T15:01:01;12.93;;;2.30;;
14858;SDS011;7521;51.700;6.874;2022-11-02T15:04:06;10.90;;;2.00;;
14858;SDS011;7521;51.700;6.874;2022-11-02T15:07:14;10.67;;;2.03;;
14858;SDS011;7521;51.700;6.874;2022-11-02T15:13:44;12.40;;;2.13;;
14858;SDS011;7521;51.700;6.874;2022-11-02T15:16:50;10.13;;;2.30;;
14858;SDS011;7521;51.700;6.874;2022-11-02T15:26:10;11.13;;;2.67;;
14858;SDS011;7521;51.700;6.874;2022-11-02T15:32:29;8.43;;;1.90;;
14858;SDS011;7521;51.700;6.874;2022-11-02T15:35:36;11.60;;;2.23;;
14858;SDS011;7521;51.700;6.874;2022-11-02T15:38:44;13.27;;;3.03;;
14858;SDS011;7521;51.700;6.874;2022-11-02T15:41:52;10.00;;;2.00;;
14858;SDS011;7521;51.700;6.874;2022-11-02T15:48:26;8.27;;;1.83;;
14858;SDS011;7521;51.700;6.874;2022-11-02T16:01:20;11.80;;;2.60;;
14858;SDS011;7521;51.700;6.874;2022-11-02T16:04:25;11.30;;;3.07;;
14858;SDS011;7521;51.700;6.874;2022-11-02T16:07:31;10.10;;;2.67;;
14858;SDS011;7521;51.700;6.874;2022-11-02T16:10:38;9.33;;;1.87;;
14858;SDS011;7521;51.700;6.874;2022-11-02T16:13:44;14.27;;;2.45;;
14858;SDS011;7521;51.700;6.874;2022-11-02T16:16:49;9.37;;;2.10;;
14858;SDS011;7521;51.700;6.874;2022-11-02T16:20:13;8.83;;;2.00;;
14858;SDS011;7521;51.700;6.874;2022-11-02T16:23:21;12.67;;;2.33;;
14858;SDS011;7521;51.700;6.874;2022-11-02T16:26:27;8.20;;;2.43;;
14858;SDS011;7521;51.700;6.874;2022-11-02T16:29:33;11.97;;;2.70;;
14858;SDS011;7521;51.700;6.874;2022-11-02T16:32:40;9.07;;;2.00;;
14858;SDS011;7521;51.700;6.874;2022-11-02T16:35:45;7.97;;;2.53;;
14858;SDS011;7521;51.700;6.874;2022-11-02T16:42:06;12.63;;;2.53;;
14858;SDS011;7521;51.700;6.874;2022-11-02T16:45:31;10.77;;;2.30;;
14858;SDS011;7521;51.700;6.874;2022-11-02T16:48:37;6.97;;;1.80;;
14858;SDS011;7521;51.700;6.874;2022-11-02T16:51:49;10.07;;;2.85;;
14858;SDS011;7521;51.700;6.874;2022-11-02T16:54:55;10.97;;;2.87;;
14858;SDS011;7521;51.700;6.874;2022-11-02T16:58:00;12.90;;;3.57;;
14858;SDS011;7521;51.700;6.874;2022-11-02T17:01:06;8.97;;;3.00;;
14858;SDS011;7521;51.700;6.874;2022-11-02T17:04:22;11.93;;;3.27;;
14858;SDS011;7521;51.700;6.874;2022-11-02T17:07:32;14.37;;;3.00;;
14858;SDS011;7521;51.700;6.874;2022-11-02T17:10:38;9.67;;;2.80;;
14858;SDS011;7521;51.700;6.874;2022-11-02T17:13:53;11.67;;;3.47;;
14858;SDS011;7521;51.700;6.874;2022-11-02T17:17:04;8.80;;;2.80;;
14858;SDS011;7521;51.700;6.874;2022-11-02T17:23:29;14.63;;;3.10;;
14858;SDS011;7521;51.700;6.874;2022-11-02T17:26:35;10.77;;;2.80;;
14858;SDS011;7521;51.700;6.874;2022-11-02T17:29:41;14.67;;;3.83;;
14858;SDS011;7521;51.700;6.874;2022-11-02T17:32:46;12.27;;;3.90;;
14858;SDS011;7521;51.700;6.874;2022-11-02T17:35:53;12.70;;;3.97;;
14858;SDS011;7521;51.700;6.874;2022-11-02T17:38:58;11.73;;;3.30;;
14858;SDS011;7521;51.700;6.874;2022-11-02T17:42:07;13.27;;;3.83;;
14858;SDS011;7521;51.700;6.874;2022-11-02T17:45:34;12.13;;;3.77;;
14858;SDS011;7521;51.700;6.874;2022-11-02T17:48:43;13.63;;;2.80;;
14858;SDS011;7521;51.700;6.874;2022-11-02T17:51:48;16.30;;;3.80;;
14858;SDS011;7521;51.700;6.874;2022-11-02T17:54:53;9.90;;;3.25;;
14858;SDS011;7521;51.700;6.874;2022-11-02T17:57:59;14.90;;;4.30;;
14858;SDS011;7521;51.700;6.874;2022-11-02T18:01:04;13.77;;;3.77;;
14858;SDS011;7521;51.700;6.874;2022-11-02T18:04:10;10.07;;;4.27;;
14858;SDS011;7521;51.700;6.874;2022-11-02T18:07:15;11.73;;;3.33;;
14858;SDS011;7521;51.700;6.874;2022-11-02T18:10:22;14.43;;;3.47;;
14858;SDS011;7521;51.700;6.874;2022-11-02T18:13:27;14.60;;;3.23;;
14858;SDS011;7521;51.700;6.874;2022-11-02T18:16:32;12.75;;;3.40;;
14858;SDS011;7521;51.700;6.874;2022-11-02T18:19:37;11.93;;;3.65;;
14858;SDS011;7521;51.700;6.874;2022-11-02T18:22:43;11.75;;;3.35;;
14858;SDS011;7521;51.700;6.874;2022-11-02T18:25:48;12.23;;;3.80;;
14858;SDS011;7521;51.700;6.874;2022-11-02T18:28:53;10.10;;;3.13;;
14858;SDS011;7521;51.700;6.874;2022-11-02T18:31:58;15.80;;;3.87;;
14858;SDS011;7521;51.700;6.874;2022-11-02T18:35:04;15.65;;;3.25;;
14858;SDS011;7521;51.700;6.874;2022-11-02T18:38:10;11.23;;;2.77;;
14858;SDS011;7521;51.700;6.874;2022-11-02T18:41:15;16.27;;;3.73;;
14858;SDS011;7521;51.700;6.874;2022-11-02T18:44:38;8.57;;;2.90;;
14858;SDS011;7521;51.700;6.874;2022-11-02T18:47:43;11.67;;;2.80;;
14858;SDS011;7521;51.700;6.874;2022-11-02T18:50:49;11.77;;;2.87;;
14858;SDS011;7521;51.700;6.874;2022-11-02T18:53:55;12.15;;;2.40;;
14858;SDS011;7521;51.700;6.874;2022-11-02T18:57:00;9.20;;;2.70;;
14858;SDS011;7521;51.700;6.874;2022-11-02T19:00:06;7.90;;;2.07;;
14858;SDS011;7521;51.700;6.874;2022-11-02T19:03:11;13.17;;;2.67;;
14858;SDS011;7521;51.700;6.874;2022-11-02T19:06:17;11.27;;;2.63;;
14858;SDS011;7521;51.700;6.874;2022-11-02T19:09:41;10.97;;;2.50;;
14858;SDS011;7521;51.700;6.874;2022-11-02T19:12:46;5.80;;;2.25;;
14858;SDS011;7521;51.700;6.874;2022-11-02T19:15:51;8.00;;;2.03;;
14858;SDS011;7521;51.700;6.874;2022-11-02T19:18:57;13.10;;;2.42;;
14858;SDS011;7521;51.700;6.874;2022-11-02T19:22:02;10.02;;;2.65;;
14858;SDS011;7521;51.700;6.874;2022-11-02T19:25:07;10.00;;;2.20;;
14858;SDS011;7521;51.700;6.874;2022-11-02T19:28:14;7.67;;;1.73;;
14858;SDS011;7521;51.700;6.874;2022-11-02T19:31:19;9.00;;;2.45;;
14858;SDS011;7521;51.700;6.874;2022-11-02T19:34:24;12.87;;;2.53;;
14858;SDS011;7521;51.700;6.874;2022-11-02T19:37:30;10.47;;;2.27;;
14858;SDS011;7521;51.700;6.874;2022-11-02T19:40:35;9.38;;;2.13;;
14858;SDS011;7521;51.700;6.874;2022-11-02T19:43:45;7.50;;;1.97;;
14858;SDS011;7521;51.700;6.874;2022-11-02T19:46:54;9.37;;;1.83;;
14858;SDS011;7521;51.700;6.874;2022-11-02T19:49:59;10.00;;;2.10;;
14858;SDS011;7521;51.700;6.874;2022-11-02T19:53:04;8.10;;;2.13;;
14858;SDS011;7521;51.700;6.874;2022-11-02T19:56:10;10.23;;;2.00;;
14858;SDS011;7521;51.700;6.874;2022-11-02T19:59:16;9.10;;;2.70;;
14858;SDS011;7521;51.700;6.874;2022-11-02T20:02:22;8.03;;;2.33;;
14858;SDS011;7521;51.700;6.874;2022-11-02T20:05:27;16.30;;;2.95;;
14858;SDS011;7521;51.700;6.874;2022-11-02T20:08:32;13.23;;;2.70;;
14858;SDS011;7521;51.700;6.874;2022-11-02T20:11:37;6.90;;;1.87;;
14858;SDS011;7521;51.700;6.874;2022-11-02T20:14:46;11.80;;;2.47;;
14858;SDS011;7521;51.700;6.874;2022-11-02T20:17:51;12.55;;;2.30;;
14858;SDS011;7521;51.700;6.874;2022-11-02T20:24:07;9.37;;;2.30;;
14858;SDS011;7521;51.700;6.874;2022-11-02T20:27:13;7.97;;;1.97;;
14858;SDS011;7521;51.700;6.874;2022-11-02T20:30:18;9.83;;;2.30;;
14858;SDS011;7521;51.700;6.874;2022-11-02T20:33:23;9.37;;;2.17;;
14858;SDS011;7521;51.700;6.874;2022-11-02T20:36:28;8.50;;;2.10;;
14858;SDS011;7521;51.700;6.874;2022-11-02T20:39:33;11.10;;;2.07;;
14858;SDS011;7521;51.700;6.874;2022-11-02T20:42:39;9.07;;;2.23;;
14858;SDS011;7521;51.700;6.874;2022-11-02T20:45:44;13.77;;;2.10;;
14858;SDS011;7521;51.700;6.874;2022-11-02T20:48:49;7.13;;;1.87;;
14858;SDS011;7521;51.700;6.874;2022-11-02T20:51:55;11.40;;;3.27;;
14858;SDS011;7521;51.700;6.874;2022-11-02T20:55:00;6.63;;;1.80;;
14858;SDS011;7521;51.700;6.874;2022-11-02T20:58:05;11.25;;;2.60;;
14858;SDS011;7521;51.700;6.874;2022-11-02T21:01:10;10.10;;;2.38;;
14858;SDS011;7521;51.700;6.874;2022-11-02T21:04:16;6.77;;;2.60;;
14858;SDS011;7521;51.700;6.874;2022-11-02T21:07:22;10.97;;;2.20;;
14858;SDS011;7521;51.700;6.874;2022-11-02T21:10:27;11.55;;;2.00;;
14858;SDS011;7521;51.700;6.874;2022-11-02T21:13:32;8.50;;;2.00;;
14858;SDS011;7521;51.700;6.874;2022-11-02T21:16:55;10.77;;;2.17;;
14858;SDS011;7521;51.700;6.874;2022-11-02T21:20:01;13.43;;;2.70;;
14858;SDS011;7521;51.700;6.874;2022-11-02T21:23:06;8.73;;;2.30;;